Time;durP1;ratioP1;P1;durP2;ratioP2;P2;SDS_P1;SDS_P2;PMS_P1;PMS_P2;Temp;Humidity;BMP_temperature;BMP_pressure;BME280_temperature;BME280_humidity;BME280_pressure;Samples;Min_cycle;Max_cycle;Signal;HPM_P1;HPM_P2
2023/01/20 00:01:02;;;;;;;51.72;21.67;;;-1.70;99.90;;;;;;4996003;28;20038;-90
2023/01/20 00:03:28;;;;;;;53.38;21.98;;;-1.70;99.90;;;;;;4995723;28;20128;-90
2023/01/20 00:05:54;;;;;;;41.95;19.05;;;-1.70;99.90;;;;;;4996129;28;20038;-90
2023/01/20 00:08:19;;;;;;;49.25;21.40;;;-1.70;99.90;;;;;;4996152;28;20026;-91
2023/01/20 00:10:45;;;;;;;47.83;20.48;;;-1.70;99.90;;;;;;4995927;28;20533;-91
2023/01/20 00:13:11;;;;;;;50.15;22.45;;;-1.80;99.90;;;;;;4995860;28;20060;-91
2023/01/20 00:15:36;;;;;;;59.80;21.50;;;-1.80;99.90;;;;;;4995961;28;20034;-90
2023/01/20 00:18:02;;;;;;;61.60;23.92;;;-1.70;99.90;;;;;;4996223;28;20033;-91
2023/01/20 00:20:28;;;;;;;56.83;22.75;;;-1.80;99.90;;;;;;4995891;28;20033;-90
2023/01/20 00:23:03;;;;;;;58.45;22.15;;;-1.70;99.90;;;;;;4995858;28;20082;-90
2023/01/20 00:25:28;;;;;;;55.90;23.50;;;-1.70;99.90;;;;;;4995750;28;20071;-91
2023/01/20 00:27:54;;;;;;;56.85;22.02;;;-1.70;99.90;;;;;;4995298;28;20026;-91
2023/01/20 00:30:20;;;;;;;57.47;22.52;;;-1.70;99.90;;;;;;4995839;28;20475;-91
2023/01/20 00:32:46;;;;;;;53.42;23.05;;;-1.70;99.90;;;;;;4995898;28;20125;-91
2023/01/20 00:35:12;;;;;;;53.00;22.27;;;-1.70;99.90;;;;;;4995741;28;20061;-89
2023/01/20 00:38:19;;;;;;;60.72;22.23;;;-1.60;99.90;;;;;;4995499;28;20038;-89
2023/01/20 00:40:53;;;;;;;49.50;21.00;;;-1.70;99.90;;;;;;4995083;28;20381;-91
2023/01/20 00:43:18;;;;;;;43.08;19.75;;;-1.70;99.90;;;;;;4995678;28;20124;-91
2023/01/20 00:46:00;;;;;;;51.95;22.40;;;-1.70;99.90;;;;;;5080827;28;20114;-90
2023/01/20 00:52:13;;;;;;;51.03;21.38;;;-1.70;99.90;;;;;;5013103;28;20134;-91
2023/01/20 00:54:39;;;;;;;55.72;22.88;;;-1.70;99.90;;;;;;4995141;28;20044;-89
2023/01/20 00:57:05;;;;;;;51.20;21.23;;;-1.70;99.90;;;;;;5081033;28;20034;-91
2023/01/20 00:59:30;;;;;;;53.00;22.05;;;-1.80;99.90;;;;;;4979178;28;20060;-90
2023/01/20 01:01:56;;;;;;;62.03;21.60;;;-1.70;99.90;;;;;;5080478;28;20052;-91
2023/01/20 01:04:22;;;;;;;54.72;22.20;;;-1.70;99.90;;;;;;5097742;28;20034;-90
2023/01/20 01:06:49;;;;;;;54.83;22.98;;;-1.60;99.90;;;;;;5097515;28;20124;-90
2023/01/20 01:09:14;;;;;;;49.28;19.70;;;-1.60;99.90;;;;;;4978874;28;20075;-91
2023/01/20 01:11:40;;;;;;;52.53;21.83;;;-1.60;99.90;;;;;;4995267;28;20034;-90
2023/01/20 01:14:06;;;;;;;58.53;22.38;;;-1.70;99.90;;;;;;4979230;28;20076;-91
2023/01/20 01:16:31;;;;;;;62.83;24.38;;;-1.70;99.90;;;;;;4978519;28;20037;-91
2023/01/20 01:18:57;;;;;;;59.65;23.40;;;-1.70;99.90;;;;;;4995435;28;20401;-90
2023/01/20 01:21:23;;;;;;;52.30;21.77;;;-1.70;99.90;;;;;;5097265;28;20120;-91
2023/01/20 01:23:50;;;;;;;70.30;26.30;;;-1.60;99.90;;;;;;4979027;28;20036;-91
2023/01/20 01:26:16;;;;;;;68.00;26.02;;;-1.60;99.90;;;;;;4995009;28;20026;-90
2023/01/20 01:28:42;;;;;;;60.80;25.40;;;-1.60;99.90;;;;;;4995134;28;20087;-90
2023/01/20 01:31:08;;;;;;;55.28;24.58;;;-1.60;99.90;;;;;;4994794;28;20037;-90
2023/01/20 01:33:34;;;;;;;59.83;25.02;;;-1.60;99.90;;;;;;4994704;28;20121;-90
2023/01/20 01:36:01;;;;;;;56.28;23.73;;;-1.60;99.90;;;;;;5097638;28;20079;-90
2023/01/20 01:38:52;;;;;;;55.00;23.25;;;-1.50;99.90;;;;;;4995072;28;20083;-90
2023/01/20 01:41:17;;;;;;;53.73;23.27;;;-1.50;99.90;;;;;;5096924;28;20137;-91
2023/01/20 01:44:05;;;;;;;59.67;24.67;;;-1.50;99.90;;;;;;5097667;28;20296;-90
2023/01/20 01:46:31;;;;;;;73.32;28.85;;;-1.50;99.90;;;;;;5012412;28;20476;-90
2023/01/20 01:49:02;;;;;;;65.20;27.05;;;-1.50;99.90;;;;;;4994541;28;20031;-91
2023/01/20 01:51:37;;;;;;;66.28;27.58;;;-1.50;99.90;;;;;;5012196;28;20041;-90
2023/01/20 01:54:11;;;;;;;77.15;28.55;;;-1.50;99.90;;;;;;4994733;28;20087;-90
2023/01/20 01:56:41;;;;;;;64.43;28.13;;;-1.40;99.90;;;;;;4994650;28;20026;-89
2023/01/20 01:59:07;;;;;;;66.68;27.02;;;-1.50;99.90;;;;;;4978639;28;20072;-90
2023/01/20 02:01:38;;;;;;;62.10;26.38;;;-1.40;99.90;;;;;;4978333;28;20037;-90
2023/01/20 02:04:12;;;;;;;70.65;28.35;;;-1.40;99.90;;;;;;4979763;28;20030;-90
2023/01/20 02:06:41;;;;;;;60.55;23.83;;;-1.40;99.90;;;;;;4997972;28;20037;-91
2023/01/20 02:09:07;;;;;;;52.58;23.38;;;-1.50;99.90;;;;;;4981483;28;20029;-90
2023/01/20 02:11:47;;;;;;;46.38;21.92;;;-1.40;99.90;;;;;;4997759;28;20034;-90
2023/01/20 02:14:20;;;;;;;52.00;23.05;;;-1.50;99.90;;;;;;5100630;28;20026;-90
2023/01/20 02:17:11;;;;;;;56.90;22.27;;;-1.50;99.90;;;;;;4981730;28;20472;-91
2023/01/20 02:20:18;;;;;;;60.40;23.80;;;-1.50;99.90;;;;;;4981481;28;20030;-90
2023/01/20 02:23:12;;;;;;;52.28;23.10;;;-1.50;99.90;;;;;;4981700;28;20041;-91
2023/01/20 02:25:56;;;;;;;50.95;21.52;;;-1.50;99.90;;;;;;4981126;28;20030;-90
2023/01/20 02:29:01;;;;;;;51.17;22.38;;;-1.50;99.90;;;;;;4981193;28;20057;-91
2023/01/20 02:31:54;;;;;;;49.63;22.33;;;-1.60;99.90;;;;;;5014735;28;20026;-90
2023/01/20 02:34:23;;;;;;;53.03;21.30;;;-1.60;99.90;;;;;;4981623;28;20034;-90
2023/01/20 02:36:59;;;;;;;52.92;22.63;;;-1.60;99.90;;;;;;4997455;28;20030;-89
2023/01/20 02:39:27;;;;;;;49.28;21.38;;;-1.60;99.90;;;;;;4981712;28;20114;-91
2023/01/20 02:42:02;;;;;;;49.42;19.27;;;-1.60;99.90;;;;;;5100363;28;20026;-91
2023/01/20 02:44:54;;;;;;;49.42;20.70;;;-1.60;99.90;;;;;;4981483;28;20034;-90
2023/01/20 02:47:49;;;;;;;49.17;19.85;;;-1.60;99.90;;;;;;4997443;28;20033;-91
2023/01/20 02:50:24;;;;;;;48.97;20.88;;;-1.50;99.90;;;;;;4997135;28;20129;-90
2023/01/20 02:52:57;;;;;;;48.63;21.60;;;-1.50;99.90;;;;;;4980805;28;20033;-90
2023/01/20 02:55:37;;;;;;;52.88;21.77;;;-1.60;99.90;;;;;;4980799;28;20037;-90
2023/01/20 02:58:07;;;;;;;53.53;21.08;;;-1.60;99.90;;;;;;4996626;28;20040;-90
2023/01/20 03:01:02;;;;;;;53.88;22.35;;;-1.70;99.90;;;;;;4980873;28;20037;-91
2023/01/20 03:03:36;;;;;;;55.13;22.10;;;-1.60;99.90;;;;;;4980278;28;20038;-90
2023/01/20 03:06:07;;;;;;;54.67;22.10;;;-1.70;99.90;;;;;;4980722;28;20124;-90
2023/01/20 03:08:35;;;;;;;59.42;23.88;;;-1.70;99.90;;;;;;4996878;28;20079;-91
2023/01/20 03:11:06;;;;;;;51.05;22.05;;;-1.70;99.90;;;;;;4996674;28;20026;-90
2023/01/20 03:13:38;;;;;;;;;;;-1.70;99.90;;;;;;4980854;28;20030;-91
2023/01/20 03:16:08;;;;;;;47.72;20.48;;;-1.70;99.90;;;;;;4995457;28;19916;-90
2023/01/20 03:18:36;;;;;;;49.95;22.77;;;-1.70;99.90;;;;;;4980609;28;20034;-90
2023/01/20 03:21:04;;;;;;;53.67;21.50;;;-1.70;99.90;;;;;;4996585;28;20072;-91
2023/01/20 03:23:33;;;;;;;47.92;20.73;;;-1.80;99.90;;;;;;4980400;28;20098;-90
2023/01/20 03:26:01;;;;;;;63.22;27.25;;;-1.80;99.90;;;;;;4980448;28;20026;-91
2023/01/20 03:28:27;;;;;;;59.97;30.05;;;-1.70;99.90;;;;;;4980267;28;20029;-90
2023/01/20 03:30:56;;;;;;;72.07;34.80;;;-1.80;99.90;;;;;;4980283;28;20029;-91
2023/01/20 03:33:22;;;;;;;65.20;29.98;;;-1.80;99.90;;;;;;4996557;28;20030;-90
2023/01/20 03:35:49;;;;;;;56.30;27.63;;;-1.80;99.90;;;;;;4980137;28;20112;-90
2023/01/20 03:38:14;;;;;;;58.97;24.90;;;-1.80;99.90;;;;;;4996464;28;20125;-91
2023/01/20 03:40:59;;;;;;;54.67;25.40;;;-1.80;99.90;;;;;;4980198;28;20148;-90
2023/01/20 03:43:53;;;;;;;60.33;25.67;;;-1.90;99.90;;;;;;4980300;28;20052;-91
2023/01/20 03:46:31;;;;;;;59.22;24.23;;;-1.80;99.90;;;;;;4996398;28;20030;-90
2023/01/20 03:49:06;;;;;;;51.10;22.08;;;-1.80;99.90;;;;;;5098892;28;20045;-91
2023/01/20 03:51:44;;;;;;;52.78;21.73;;;-1.90;99.90;;;;;;4980243;28;20392;-90
2023/01/20 03:54:14;;;;;;;59.85;24.08;;;-1.90;99.90;;;;;;4980084;28;20503;-90
2023/01/20 03:57:02;;;;;;;55.45;23.48;;;-1.90;99.90;;;;;;5013374;28;20029;-90
2023/01/20 03:59:33;;;;;;;58.42;22.92;;;-1.90;99.90;;;;;;4979944;28;20041;-92
2023/01/20 04:02:02;;;;;;;52.03;22.90;;;-1.90;99.90;;;;;;4979711;28;20036;-91
2023/01/20 04:04:30;;;;;;;54.47;22.15;;;-1.90;99.90;;;;;;4980010;28;20038;-91
2023/01/20 04:06:56;;;;;;;55.65;23.50;;;-1.90;99.90;;;;;;5098663;28;20025;-91
2023/01/20 04:09:26;;;;;;;48.97;21.80;;;-1.90;99.90;;;;;;4995861;28;20087;-90
2023/01/20 04:11:52;;;;;;;56.80;22.40;;;-1.90;99.90;;;;;;4995986;28;20549;-91
2023/01/20 04:14:18;;;;;;;71.32;24.77;;;-1.90;99.90;;;;;;4979794;28;20042;-92
2023/01/20 04:16:55;;;;;;;49.78;21.70;;;-1.90;99.90;;;;;;5013464;28;20381;-90
2023/01/20 04:19:21;;;;;;;58.47;24.48;;;-1.80;99.90;;;;;;4979751;28;20129;-91
2023/01/20 04:22:01;;;;;;;65.00;25.58;;;-1.80;99.90;;;;;;5013358;28;20079;-90
2023/01/20 04:24:40;;;;;;;62.25;25.17;;;-1.80;99.90;;;;;;4979451;28;20030;-91
2023/01/20 04:27:06;;;;;;;57.38;23.70;;;-1.80;99.90;;;;;;4995153;28;20520;-90
2023/01/20 04:29:32;;;;;;;68.22;27.33;;;-1.70;99.90;;;;;;4995657;28;20018;-90
2023/01/20 04:32:02;;;;;;;61.03;27.10;;;-1.80;99.90;;;;;;4979396;28;20025;-90
2023/01/20 04:34:27;;;;;;;62.38;25.67;;;-1.80;99.90;;;;;;4979218;28;20038;-90
2023/01/20 04:36:53;;;;;;;66.72;26.63;;;-1.80;99.90;;;;;;4979436;28;20434;-91
2023/01/20 04:39:19;;;;;;;59.80;26.52;;;-1.90;99.90;;;;;;4979431;28;20034;-90
2023/01/20 04:41:46;;;;;;;72.32;29.63;;;-1.90;99.90;;;;;;4978971;28;20469;-90
2023/01/20 04:44:11;;;;;;;67.18;27.65;;;-1.90;99.90;;;;;;4995466;28;20075;-90
2023/01/20 04:46:37;;;;;;;57.47;26.90;;;-2.00;99.90;;;;;;5097674;28;20034;-89
2023/01/20 04:49:03;;;;;;;97.72;30.23;;;-2.00;99.90;;;;;;4979023;28;20026;-90
2023/01/20 04:51:30;;;;;;;82.40;31.67;;;-1.90;99.90;;;;;;4979671;28;20036;-91
2023/01/20 04:53:57;;;;;;;78.80;32.58;;;-2.00;99.90;;;;;;4979314;28;20041;-90
2023/01/20 04:56:23;;;;;;;90.15;35.58;;;-2.00;99.90;;;;;;4979271;28;20034;-90
2023/01/20 04:58:48;;;;;;;82.90;34.95;;;-2.00;99.90;;;;;;5097557;28;20481;-91
2023/01/20 05:01:14;;;;;;;83.47;33.05;;;-2.00;99.90;;;;;;5080834;28;20022;-91
2023/01/20 05:03:40;;;;;;;78.88;33.65;;;-2.10;99.90;;;;;;5097474;28;20030;-90
2023/01/20 05:06:06;;;;;;;76.07;33.67;;;-2.10;99.90;;;;;;4979323;28;20034;-90
2023/01/20 05:08:32;;;;;;;76.15;31.90;;;-2.30;99.90;;;;;;4979216;28;20116;-90
2023/01/20 05:10:57;;;;;;;75.97;32.30;;;-2.40;99.90;;;;;;4978613;28;20396;-90
2023/01/20 05:13:23;;;;;;;76.70;30.55;;;-2.50;99.90;;;;;;4978942;28;20029;-89
2023/01/20 05:15:49;;;;;;;75.95;30.08;;;-2.60;99.90;;;;;;4978848;28;20083;-90
2023/01/20 05:18:14;;;;;;;71.95;30.00;;;-2.60;99.90;;;;;;5097065;28;20161;-91
2023/01/20 05:20:42;;;;;;;72.13;30.83;;;-2.70;99.90;;;;;;4995106;28;20037;-90
2023/01/20 05:23:08;;;;;;;75.82;31.35;;;-2.80;99.90;;;;;;4994612;28;20030;-90
2023/01/20 05:25:34;;;;;;;72.60;29.75;;;-2.90;99.90;;;;;;4994959;28;20042;-91
2023/01/20 05:27:59;;;;;;;74.22;29.38;;;-3.00;99.90;;;;;;4978777;28;20040;-90
2023/01/20 05:30:25;;;;;;;74.75;30.02;;;-3.20;99.90;;;;;;4995037;28;20030;-91
2023/01/20 05:32:51;;;;;;;78.47;32.00;;;-3.30;99.90;;;;;;4978642;28;20040;-90
2023/01/20 05:35:17;;;;;;;80.85;31.73;;;-3.50;99.90;;;;;;4994894;28;20026;-90
2023/01/20 05:37:43;;;;;;;77.25;30.48;;;-3.60;99.90;;;;;;4995613;28;20117;-90
2023/01/20 05:40:09;;;;;;;78.72;33.10;;;-3.70;99.90;;;;;;4981170;28;20057;-90
2023/01/20 05:42:35;;;;;;;75.82;31.38;;;-3.80;99.90;;;;;;5015339;28;20506;-90
2023/01/20 05:45:01;;;;;;;77.70;30.33;;;-3.90;99.90;;;;;;4982469;28;20018;-90
2023/01/20 05:47:27;;;;;;;70.70;30.52;;;-4.10;99.90;;;;;;4998282;28;20030;-89
2023/01/20 05:49:53;;;;;;;73.30;30.10;;;-4.20;99.90;;;;;;4998182;28;20053;-90
2023/01/20 05:52:18;;;;;;;74.05;30.88;;;-4.30;99.90;;;;;;5084032;28;20041;-90
2023/01/20 05:54:44;;;;;;;75.75;30.35;;;-4.40;99.90;;;;;;4981789;28;20034;-90
2023/01/20 05:57:10;;;;;;;81.95;30.73;;;-4.40;99.90;;;;;;4982284;28;20045;-90
2023/01/20 05:59:35;;;;;;;86.95;33.70;;;-4.50;99.90;;;;;;4981907;28;20030;-90
2023/01/20 06:02:01;;;;;;;77.75;29.83;;;-4.60;99.90;;;;;;4981537;28;20082;-90
2023/01/20 06:04:27;;;;;;;71.82;29.63;;;-4.70;99.90;;;;;;4998130;28;20493;-91
2023/01/20 06:06:52;;;;;;;84.10;31.08;;;-4.90;99.90;;;;;;4982126;28;20423;-90
2023/01/20 06:09:18;;;;;;;78.60;29.98;;;-5.00;99.90;;;;;;4981703;28;20120;-90
2023/01/20 06:11:43;;;;;;;68.93;26.92;;;-5.00;99.90;;;;;;4997980;28;20034;-91
2023/01/20 06:14:09;;;;;;;72.45;29.08;;;-5.10;99.90;;;;;;5083319;28;20029;-90
2023/01/20 06:16:35;;;;;;;70.72;29.83;;;-5.20;99.90;;;;;;4981749;28;20097;-90
2023/01/20 06:19:00;;;;;;;73.38;29.30;;;-5.40;99.90;;;;;;4997678;28;20033;-90
2023/01/20 06:21:26;;;;;;;76.95;29.52;;;-5.40;99.90;;;;;;4981196;28;20030;-89
2023/01/20 06:24:01;;;;;;;74.60;27.25;;;-5.40;99.90;;;;;;4981593;28;20089;-89
2023/01/20 06:26:27;;;;;;;71.40;29.30;;;-5.50;99.90;;;;;;5100572;28;20041;-89
2023/01/20 06:29:01;;;;;;;65.63;27.58;;;-5.70;99.90;;;;;;4997021;28;20034;-89
2023/01/20 06:31:27;;;;;;;66.85;26.88;;;-5.80;99.90;;;;;;4980928;28;20034;-89
2023/01/20 06:33:55;;;;;;;58.97;24.65;;;-5.90;99.90;;;;;;5083125;28;20124;-89
2023/01/20 06:36:20;;;;;;;64.13;25.98;;;-6.00;99.90;;;;;;4981643;28;20037;-90
2023/01/20 06:38:49;;;;;;;61.10;25.83;;;-6.00;99.90;;;;;;5082950;28;20393;-89
2023/01/20 06:41:16;;;;;;;63.85;25.15;;;-6.10;99.90;;;;;;4997195;28;20030;-90
2023/01/20 06:43:42;;;;;;;61.30;25.30;;;-6.10;99.90;;;;;;4981399;28;20028;-90
2023/01/20 06:46:12;;;;;;;62.85;25.92;;;-6.20;99.90;;;;;;4997059;28;20040;-90
2023/01/20 06:48:38;;;;;;;78.93;30.33;;;-6.30;99.90;;;;;;4980680;28;20034;-90
2023/01/20 06:51:09;;;;;;;77.47;29.00;;;-6.30;99.90;;;;;;4996392;28;20034;-90
2023/01/20 06:53:35;;;;;;;78.05;27.10;;;-6.20;99.90;;;;;;4997327;28;20456;-89
2023/01/20 06:56:02;;;;;;;67.57;27.00;;;-6.20;99.90;;;;;;5014735;28;20495;-89
2023/01/20 06:58:32;;;;;;;77.55;30.30;;;-6.40;99.90;;;;;;4980424;28;20045;-90
2023/01/20 07:01:10;;;;;;;68.43;27.80;;;-6.50;99.90;;;;;;4996511;28;20721;-90
2023/01/20 07:03:36;;;;;;;70.93;28.88;;;-6.50;99.90;;;;;;4996874;28;20085;-90
2023/01/20 07:06:06;;;;;;;72.95;28.35;;;-6.60;99.90;;;;;;4980054;28;20473;-90
2023/01/20 07:08:32;;;;;;;84.07;29.52;;;-6.50;99.90;;;;;;4996420;28;20062;-89
2023/01/20 07:10:57;;;;;;;88.18;32.60;;;-6.50;99.90;;;;;;4980239;28;20026;-90
2023/01/20 07:13:23;;;;;;;142.48;35.45;;;-6.40;99.90;;;;;;5098519;28;20170;-89
2023/01/20 07:15:48;;;;;;;87.43;31.50;;;-6.20;99.90;;;;;;4979242;28;20078;-89
2023/01/20 07:18:14;;;;;;;75.57;30.35;;;-6.10;99.90;;;;;;5097298;28;20042;-90
2023/01/20 07:20:42;;;;;;;76.78;28.65;;;-6.00;99.90;;;;;;4995159;28;20465;-89
2023/01/20 07:23:07;;;;;;;164.32;32.90;;;-5.90;99.90;;;;;;5080459;28;20038;-90
2023/01/20 07:25:33;;;;;;;129.25;33.22;;;-5.80;99.90;;;;;;4978800;28;20033;-89
2023/01/20 07:27:59;;;;;;;98.88;35.38;;;-5.70;99.90;;;;;;5097814;28;20117;-89
2023/01/20 07:30:25;;;;;;;171.32;41.13;;;-5.70;99.90;;;;;;5080167;28;20029;-89
2023/01/20 07:32:50;;;;;;;99.53;32.70;;;-5.80;99.90;;;;;;5096941;28;20079;-90
2023/01/20 07:35:16;;;;;;;165.40;36.55;;;-5.80;99.90;;;;;;4978198;28;20428;-89
2023/01/20 07:37:42;;;;;;;129.07;32.72;;;-5.90;99.90;;;;;;4978063;28;20034;-90
2023/01/20 07:40:08;;;;;;;92.53;30.67;;;-5.90;99.90;;;;;;5012454;28;20082;-89
2023/01/20 07:42:37;;;;;;;93.13;28.52;;;-6.00;99.90;;;;;;4994248;28;20088;-89
2023/01/20 07:45:04;;;;;;;80.80;29.60;;;-6.10;99.90;;;;;;4979103;28;20026;-90
2023/01/20 07:47:30;;;;;;;107.50;29.70;;;-6.20;99.90;;;;;;4978635;28;20030;-89
2023/01/20 07:49:55;;;;;;;78.28;28.33;;;-6.20;99.90;;;;;;4978190;28;20034;-90
2023/01/20 07:52:21;;;;;;;77.10;27.75;;;-6.20;99.90;;;;;;4978179;28;20556;-90
2023/01/20 07:54:47;;;;;;;88.43;29.42;;;-6.20;99.90;;;;;;5097648;28;20029;-89
2023/01/20 07:57:13;;;;;;;82.28;29.73;;;-6.20;99.90;;;;;;4978493;28;20038;-90
2023/01/20 07:59:38;;;;;;;73.80;29.25;;;-6.20;99.90;;;;;;4978219;28;20625;-89
2023/01/20 08:02:04;;;;;;;73.35;27.48;;;-6.10;99.90;;;;;;4977166;28;20086;-90
2023/01/20 08:04:32;;;;;;;71.82;26.23;;;-6.10;99.90;;;;;;4978624;28;20041;-90
2023/01/20 08:06:57;;;;;;;66.47;25.38;;;-6.10;99.90;;;;;;4978679;28;20057;-90
2023/01/20 08:09:23;;;;;;;87.50;29.13;;;-6.20;99.90;;;;;;4978063;28;20029;-90
2023/01/20 08:11:49;;;;;;;78.30;29.75;;;-6.30;99.90;;;;;;4995191;28;20049;-90
2023/01/20 08:14:14;;;;;;;79.78;31.35;;;-6.20;99.90;;;;;;4979035;28;20476;-89
2023/01/20 08:16:40;;;;;;;75.72;30.77;;;-6.10;99.90;;;;;;4978873;28;20034;-90
2023/01/20 08:19:06;;;;;;;87.47;31.63;;;-6.00;99.90;;;;;;4977959;28;20489;-89
2023/01/20 08:21:32;;;;;;;101.85;32.67;;;-5.70;99.90;;;;;;5096579;28;20033;-89
2023/01/20 08:24:00;;;;;;;80.85;32.50;;;-5.60;99.90;;;;;;4978997;28;20031;-89
2023/01/20 08:26:29;;;;;;;90.43;30.65;;;-5.60;99.90;;;;;;4978353;28;20037;-89
2023/01/20 08:29:00;;;;;;;79.85;30.92;;;-5.50;99.90;;;;;;4978752;28;20121;-89
2023/01/20 08:31:26;;;;;;;82.47;32.38;;;-5.40;99.90;;;;;;4977279;28;20091;-89
2023/01/20 08:33:53;;;;;;;98.38;38.35;;;-5.40;99.90;;;;;;4977568;28;20037;-90
2023/01/20 08:36:26;;;;;;;95.85;38.47;;;-5.30;99.90;;;;;;5097020;28;20036;-90
2023/01/20 08:38:57;;;;;;;115.88;40.45;;;-5.40;99.90;;;;;;4977688;28;20037;-90
2023/01/20 08:41:27;;;;;;;100.43;35.03;;;-5.40;99.90;;;;;;4993688;28;20132;-89
2023/01/20 08:43:54;;;;;;;80.85;31.13;;;-5.50;99.90;;;;;;4977555;28;20029;-90
2023/01/20 08:46:51;;;;;;;81.80;29.33;;;-5.50;99.90;;;;;;4977925;28;20619;-90
2023/01/20 08:49:18;;;;;;;77.25;28.02;;;-5.50;99.90;;;;;;4993325;28;20105;-90
2023/01/20 08:51:44;;;;;;;85.47;30.40;;;-5.40;99.90;;;;;;5095858;28;20022;-89
2023/01/20 08:54:10;;;;;;;86.43;30.48;;;-5.40;99.90;;;;;;4977005;28;20147;-90
2023/01/20 08:56:36;;;;;;;82.30;30.77;;;-5.30;99.90;;;;;;4976932;28;20034;-91
2023/01/20 08:59:02;;;;;;;79.55;30.63;;;-5.20;99.90;;;;;;4977264;28;20034;-90
2023/01/20 09:01:32;;;;;;;89.10;33.30;;;-5.10;99.90;;;;;;4993398;28;20066;-90
2023/01/20 09:03:58;;;;;;;82.70;31.73;;;-5.00;99.90;;;;;;4977449;28;20030;-89
2023/01/20 09:06:25;;;;;;;85.18;33.83;;;-4.90;99.90;;;;;;4977151;28;20037;-89
2023/01/20 09:08:52;;;;;;;91.78;36.60;;;-4.80;99.90;;;;;;4976814;28;20037;-90
2023/01/20 09:11:21;;;;;;;88.78;36.05;;;-4.70;99.90;;;;;;4993348;28;20038;-90
2023/01/20 09:13:47;;;;;;;86.45;38.20;;;-4.60;99.90;;;;;;5012563;28;20546;-90
2023/01/20 09:16:15;;;;;;;114.85;49.17;;;-4.50;99.90;;;;;;4980296;28;20038;-90
2023/01/20 09:18:41;;;;;;;114.10;47.50;;;-4.50;99.90;;;;;;4980085;28;20034;-90
2023/01/20 09:21:08;;;;;;;128.98;51.88;;;-4.30;99.90;;;;;;5013401;28;20038;-90
2023/01/20 09:23:36;;;;;;;116.75;51.67;;;-4.20;99.90;;;;;;4979839;28;20044;-90
2023/01/20 09:26:03;;;;;;;122.80;51.15;;;-4.10;99.90;;;;;;4980244;28;20026;-90
2023/01/20 09:28:30;;;;;;;115.72;48.80;;;-3.90;99.90;;;;;;4980183;28;20041;-91
2023/01/20 09:31:08;;;;;;;117.05;46.67;;;-3.70;99.90;;;;;;4996455;28;20037;-90
2023/01/20 09:33:37;;;;;;;116.25;46.78;;;-3.60;99.90;;;;;;4979794;28;20353;-89
2023/01/20 09:36:04;;;;;;;125.05;49.88;;;-3.50;99.90;;;;;;5082375;28;20042;-89
2023/01/20 09:44:35;;;;;;;115.78;45.90;;;-3.20;99.90;;;;;;4996796;28;20098;-90
2023/01/20 09:47:19;;;;;;;115.75;46.83;;;-2.90;99.90;;;;;;4980033;28;20473;-89
2023/01/20 09:55:39;;;;;;;94.72;37.20;;;-2.40;99.90;;;;;;4996285;28;20034;-90
2023/01/20 09:58:32;;;;;;;85.90;33.97;;;-2.20;99.90;;;;;;5082068;28;20438;-89
2023/01/20 10:01:17;;;;;;;115.18;48.45;;;-1.90;99.90;;;;;;4980182;28;20030;-91
2023/01/20 10:04:05;;;;;;;123.13;49.63;;;-1.70;99.90;;;;;;5081558;28;20124;-91
2023/01/20 10:06:44;;;;;;;90.03;38.22;;;-1.40;99.90;;;;;;4979976;28;20103;-90
2023/01/20 10:09:56;;;;;;;90.97;37.00;;;-1.10;99.90;;;;;;4996001;28;20033;-89
2023/01/20 10:12:30;;;;;;;;;;;-0.70;99.90;;;;;;4992826;28;20042;-91
2023/01/20 10:15:15;;;;;;;107.90;35.53;;;-0.40;99.90;;;;;;4995893;28;19915;-90
2023/01/20 10:17:52;;;;;;;98.10;34.33;;;-0.30;99.90;;;;;;4979691;28;20038;-90
2023/01/20 10:20:31;;;;;;;138.57;33.13;;;-0.30;99.90;;;;;;4979949;28;20042;-90
2023/01/20 10:23:06;;;;;;;282.73;39.70;;;-0.30;99.90;;;;;;4979898;28;20038;-90
2023/01/20 10:25:51;;;;;;;275.95;82.13;;;-0.40;99.90;;;;;;4978996;28;20083;-90
2023/01/20 10:28:28;;;;;;;214.02;59.00;;;-0.40;99.90;;;;;;4979382;28;20022;-90
2023/01/20 10:31:00;;;;;;;96.45;35.83;;;-0.10;99.90;;;;;;4979140;28;20087;-91
2023/01/20 10:33:38;;;;;;;173.98;56.65;;;0.40;99.90;;;;;;4979975;28;20034;-90
2023/01/20 10:36:11;;;;;;;87.25;35.60;;;0.50;99.90;;;;;;4978846;28;20052;-90
2023/01/20 10:38:37;;;;;;;147.15;41.10;;;0.80;99.90;;;;;;4978538;28;20044;-90
2023/01/20 10:41:07;;;;;;;75.82;31.77;;;0.90;99.90;;;;;;4978303;28;20729;-89
2023/01/20 10:43:32;;;;;;;69.03;30.10;;;0.90;99.90;;;;;;4978600;28;20033;-90
2023/01/20 10:46:22;;;;;;;57.55;25.52;;;0.90;99.90;;;;;;5080680;28;20030;-89
2023/01/20 10:49:05;;;;;;;57.85;26.58;;;1.00;99.90;;;;;;4978504;28;20038;-89
2023/01/20 10:51:48;;;;;;;51.97;22.30;;;1.10;99.90;;;;;;4978342;28;20034;-89
2023/01/20 10:54:34;;;;;;;50.47;22.55;;;1.30;99.90;;;;;;4978948;28;20057;-89
2023/01/20 10:57:03;;;;;;;52.85;24.88;;;1.70;99.90;;;;;;4979051;28;20191;-89
2023/01/20 10:59:44;;;;;;;55.58;24.13;;;2.00;99.90;;;;;;4978771;28;20409;-89
2023/01/20 11:02:21;;;;;;;49.17;23.35;;;1.90;99.90;;;;;;4978519;28;20030;-89
2023/01/20 11:05:15;;;;;;;65.82;31.20;;;2.00;99.90;;;;;;4994530;28;20026;-90
2023/01/20 11:07:43;;;;;;;59.15;29.15;;;2.00;99.90;;;;;;4978368;28;20034;-89
2023/01/20 11:10:13;;;;;;;46.50;23.10;;;1.80;99.90;;;;;;4978407;28;20090;-88
2023/01/20 11:12:42;;;;;;;43.88;22.73;;;1.80;99.90;;;;;;4978318;28;20037;-89
2023/01/20 11:15:35;;;;;;;55.65;28.73;;;1.70;99.90;;;;;;4978806;28;20050;-89
2023/01/20 11:18:13;;;;;;;55.97;27.80;;;1.60;99.90;;;;;;4977071;28;20064;-89
2023/01/20 11:20:49;;;;;;;50.70;23.33;;;1.50;99.90;;;;;;4978038;28;20033;-89
2023/01/20 11:23:23;;;;;;;51.03;25.02;;;1.30;99.90;;;;;;4994359;28;20030;-89
2023/01/20 11:26:00;;;;;;;51.92;26.48;;;1.10;99.90;;;;;;4978594;28;20041;-90
2023/01/20 11:28:44;;;;;;;45.38;18.83;;;1.20;99.90;;;;;;4978321;28;20639;-90
2023/01/20 11:31:10;;;;;;;45.05;24.42;;;1.00;99.90;;;;;;5096938;28;20442;-90
2023/01/20 11:33:55;;;;;;;45.83;23.50;;;1.00;99.90;;;;;;4978159;28;20065;-90
2023/01/20 11:36:25;;;;;;;48.35;23.02;;;1.10;99.90;;;;;;4977305;28;20090;-89
2023/01/20 11:38:53;;;;;;;50.65;22.83;;;1.40;99.90;;;;;;4979262;28;20068;-90
2023/01/20 11:41:19;;;;;;;40.95;20.23;;;1.30;99.90;;;;;;4978017;28;20042;-91
2023/01/20 11:43:46;;;;;;;42.08;20.15;;;1.10;99.90;;;;;;4994062;28;20057;-90
2023/01/20 11:46:25;;;;;;;40.58;20.63;;;1.30;99.90;;;;;;4978201;28;20415;-90
2023/01/20 11:49:17;;;;;;;39.50;20.02;;;1.40;99.90;;;;;;4994482;28;20535;-90
2023/01/20 11:51:47;;;;;;;40.15;19.85;;;1.10;99.90;;;;;;4978455;28;20030;-91
2023/01/20 11:54:33;;;;;;;42.93;19.50;;;1.00;99.90;;;;;;4994608;28;20036;-90
2023/01/20 11:57:08;;;;;;;51.20;25.52;;;1.00;99.90;;;;;;4977732;28;20397;-90
2023/01/20 11:59:48;;;;;;;41.42;19.10;;;1.00;99.90;;;;;;5111735;27;20430;-91
2023/01/20 12:02:13;;;;;;;36.60;18.75;;;1.30;99.90;;;;;;5104678;28;20081;-90
2023/01/20 12:04:39;;;;;;;32.15;16.17;;;1.40;99.90;;;;;;5093123;28;20024;-90
2023/01/20 12:07:10;;;;;;;34.78;18.33;;;1.60;99.90;;;;;;5110342;28;20020;-91
2023/01/20 12:09:43;;;;;;;38.28;19.42;;;1.60;99.90;;;;;;5110486;28;20039;-90
2023/01/20 12:12:31;;;;;;;70.45;28.08;;;1.60;99.90;;;;;;5109820;28;20398;-90
2023/01/20 12:15:04;;;;;;;45.40;20.88;;;1.70;99.90;;;;;;5102518;28;20119;-90
2023/01/20 12:17:43;;;;;;;62.35;28.65;;;1.40;99.90;;;;;;5094305;28;20028;-89
2023/01/20 12:20:18;;;;;;;60.72;26.75;;;1.20;99.90;;;;;;5111970;28;20069;-89
2023/01/20 12:22:58;;;;;;;69.95;27.77;;;0.90;99.90;;;;;;5092687;28;20077;-89
2023/01/20 12:25:42;;;;;;;52.95;21.98;;;1.40;99.90;;;;;;5093012;28;20119;-88
2023/01/20 12:28:35;;;;;;;42.22;20.88;;;1.60;99.90;;;;;;5079708;28;20396;-89
2023/01/20 12:31:03;;;;;;;46.22;22.80;;;2.20;99.90;;;;;;5112469;28;20027;-89
2023/01/20 12:33:32;;;;;;;40.72;20.92;;;2.40;99.90;;;;;;5099036;28;20078;-89
2023/01/20 12:36:33;;;;;;;43.00;21.55;;;2.70;99.90;;;;;;5099025;28;20028;-90
2023/01/20 12:39:11;;;;;;;40.10;19.95;;;3.00;99.90;;;;;;5106427;28;20043;-90
2023/01/20 12:42:04;;;;;;;44.10;22.67;;;3.30;99.90;;;;;;5078276;28;20025;-90
2023/01/20 12:44:46;;;;;;;40.83;23.60;;;3.80;99.90;;;;;;5099283;28;20028;-90
2023/01/20 12:47:17;;;;;;;39.35;21.23;;;4.40;99.90;;;;;;5086090;28;20038;-90
2023/01/20 12:50:02;;;;;;;;;;;4.30;99.90;;;;;;5090797;28;20028;-91
2023/01/20 12:52:39;;;;;;;43.17;22.77;;;3.60;99.90;;;;;;5104155;28;19961;-89
2023/01/20 12:55:23;;;;;;;38.03;21.10;;;2.90;99.90;;;;;;5088242;28;20047;-89
2023/01/20 12:58:01;;;;;;;42.92;21.35;;;2.50;99.90;;;;;;5075575;28;20041;-89
2023/01/20 13:01:09;;;;;;;44.00;24.05;;;1.90;99.90;;;;;;5080665;28;20016;-89
2023/01/20 13:03:51;;;;;;;51.30;24.13;;;1.40;99.90;;;;;;5105123;28;20023;-88
2023/01/20 13:06:45;;;;;;;51.28;26.10;;;0.90;99.90;;;;;;5101760;28;20468;-89